sensor_id;sensor_type;location;lat;lon;timestamp;pressure;altitude;pressure_sealevel;temperature;humidity
84995;BME280;75312;47.528;19.016;2024-02-14T00:00:26;99370.81;;;5.64;59.73
84995;BME280;75312;47.528;19.016;2024-02-14T00:01:01;99368.06;;;5.78;59.40
84995;BME280;75312;47.528;19.016;2024-02-14T00:01:32;99366.00;;;5.71;60.10
84995;BME280;75312;47.528;19.016;2024-02-14T00:02:07;99372.03;;;5.71;60.04
84995;BME280;75312;47.528;19.016;2024-02-14T00:02:38;99370.38;;;5.70;59.94
84995;BME280;75312;47.528;19.016;2024-02-14T00:03:13;99376.75;;;5.66;59.50
84995;BME280;75312;47.528;19.016;2024-02-14T00:03:46;99366.75;;;5.73;59.94
84995;BME280;75312;47.528;19.016;2024-02-14T00:04:18;99369.94;;;5.76;59.74
84995;BME280;75312;47.528;19.016;2024-02-14T00:04:49;99367.34;;;5.76;59.85
84995;BME280;75312;47.528;19.016;2024-02-14T00:05:25;99360.25;;;5.78;59.43
84995;BME280;75312;47.528;19.016;2024-02-14T00:05:56;99371.31;;;5.69;59.60
84995;BME280;75312;47.528;19.016;2024-02-14T00:06:35;99375.50;;;5.59;60.24
84995;BME280;75312;47.528;19.016;2024-02-14T00:07:05;99371.97;;;5.60;60.26
84995;BME280;75312;47.528;19.016;2024-02-14T00:07:39;99372.97;;;5.70;59.85
84995;BME280;75312;47.528;19.016;2024-02-14T00:08:10;99374.75;;;5.70;59.94
84995;BME280;75312;47.528;19.016;2024-02-14T00:08:46;99364.47;;;5.68;60.23
84995;BME280;75312;47.528;19.016;2024-02-14T00:09:25;99374.75;;;5.70;59.77
84995;BME280;75312;47.528;19.016;2024-02-14T00:09:56;99358.66;;;5.64;60.20
84995;BME280;75312;47.528;19.016;2024-02-14T00:10:31;99365.13;;;5.59;60.02
84995;BME280;75312;47.528;19.016;2024-02-14T00:11:08;99369.88;;;5.65;60.15
84995;BME280;75312;47.528;19.016;2024-02-14T00:11:39;99369.25;;;5.61;60.06
84995;BME280;75312;47.528;19.016;2024-02-14T00:12:09;99370.72;;;5.65;60.18
84995;BME280;75312;47.528;19.016;2024-02-14T00:12:42;99366.81;;;5.71;59.64
84995;BME280;75312;47.528;19.016;2024-02-14T00:13:13;99367.78;;;5.70;59.36
84995;BME280;75312;47.528;19.016;2024-02-14T00:13:44;99371.44;;;5.68;59.21
84995;BME280;75312;47.528;19.016;2024-02-14T00:14:14;99365.25;;;5.81;58.74
84995;BME280;75312;47.528;19.016;2024-02-14T00:14:46;99363.69;;;5.79;59.58
84995;BME280;75312;47.528;19.016;2024-02-14T00:15:21;99365.34;;;5.80;59.13
84995;BME280;75312;47.528;19.016;2024-02-14T00:15:54;99368.81;;;5.68;59.45
84995;BME280;75312;47.528;19.016;2024-02-14T00:16:24;99370.09;;;5.62;59.87
84995;BME280;75312;47.528;19.016;2024-02-14T00:17:00;99366.00;;;5.71;58.82
84995;BME280;75312;47.528;19.016;2024-02-14T00:17:31;99364.41;;;5.81;59.03
84995;BME280;75312;47.528;19.016;2024-02-14T00:18:04;99364.22;;;5.71;59.67
84995;BME280;75312;47.528;19.016;2024-02-14T00:18:35;99368.13;;;5.65;59.70
84995;BME280;75312;47.528;19.016;2024-02-14T00:19:05;99374.25;;;5.64;60.03
84995;BME280;75312;47.528;19.016;2024-02-14T00:19:38;99369.88;;;5.65;59.71
84995;BME280;75312;47.528;19.016;2024-02-14T00:20:10;99373.34;;;5.53;59.54
84995;BME280;75312;47.528;19.016;2024-02-14T00:20:48;99370.34;;;5.46;60.52
84995;BME280;75312;47.528;19.016;2024-02-14T00:21:20;99375.41;;;5.60;60.06
84995;BME280;75312;47.528;19.016;2024-02-14T00:21:53;99378.22;;;5.57;60.17
84995;BME280;75312;47.528;19.016;2024-02-14T00:22:24;99390.78;;;5.63;59.71
84995;BME280;75312;47.528;19.016;2024-02-14T00:22:54;99386.63;;;5.61;59.89
84995;BME280;75312;47.528;19.016;2024-02-14T00:23:27;99380.00;;;5.57;59.84
84995;BME280;75312;47.528;19.016;2024-02-14T00:24:01;99375.75;;;5.56;59.94
84995;BME280;75312;47.528;19.016;2024-02-14T00:24:34;99375.44;;;5.48;60.03
84995;BME280;75312;47.528;19.016;2024-02-14T00:25:07;99382.41;;;5.47;60.31
84995;BME280;75312;47.528;19.016;2024-02-14T00:25:42;99381.84;;;5.55;59.94
84995;BME280;75312;47.528;19.016;2024-02-14T00:26:13;99384.41;;;5.68;59.91
84995;BME280;75312;47.528;19.016;2024-02-14T00:26:44;99391.16;;;5.70;59.65
84995;BME280;75312;47.528;19.016;2024-02-14T00:27:16;99391.63;;;5.64;59.41
84995;BME280;75312;47.528;19.016;2024-02-14T00:27:50;99385.06;;;5.58;59.59
84995;BME280;75312;47.528;19.016;2024-02-14T00:28:20;99381.13;;;5.53;59.96
84995;BME280;75312;47.528;19.016;2024-02-14T00:28:59;99380.00;;;5.44;60.66
84995;BME280;75312;47.528;19.016;2024-02-14T00:29:37;99368.69;;;5.45;60.89
84995;BME280;75312;47.528;19.016;2024-02-14T00:30:08;99377.53;;;5.43;60.43
84995;BME280;75312;47.528;19.016;2024-02-14T00:30:45;99382.50;;;5.46;60.33
84995;BME280;75312;47.528;19.016;2024-02-14T00:31:16;99384.44;;;5.55;60.11
84995;BME280;75312;47.528;19.016;2024-02-14T00:31:50;99382.25;;;5.61;60.30
84995;BME280;75312;47.528;19.016;2024-02-14T00:32:25;99377.56;;;5.67;59.54
84995;BME280;75312;47.528;19.016;2024-02-14T00:32:56;99389.94;;;5.63;59.47
84995;BME280;75312;47.528;19.016;2024-02-14T00:33:26;99392.66;;;5.61;59.44
84995;BME280;75312;47.528;19.016;2024-02-14T00:34:00;99380.94;;;5.56;59.50
84995;BME280;75312;47.528;19.016;2024-02-14T00:34:31;99383.13;;;5.49;59.78
84995;BME280;75312;47.528;19.016;2024-02-14T00:35:01;99388.50;;;5.59;59.47
84995;BME280;75312;47.528;19.016;2024-02-14T00:35:34;99382.38;;;5.60;59.87
84995;BME280;75312;47.528;19.016;2024-02-14T00:36:07;99387.28;;;5.52;60.09
84995;BME280;75312;47.528;19.016;2024-02-14T00:36:38;99389.28;;;5.48;60.29
84995;BME280;75312;47.528;19.016;2024-02-14T00:37:08;99382.41;;;5.47;59.99
84995;BME280;75312;47.528;19.016;2024-02-14T00:37:39;99390.09;;;5.49;59.89
84995;BME280;75312;47.528;19.016;2024-02-14T00:38:09;99383.13;;;5.49;59.70
84995;BME280;75312;47.528;19.016;2024-02-14T00:38:42;99388.09;;;5.52;59.78
84995;BME280;75312;47.528;19.016;2024-02-14T00:39:13;99384.78;;;5.50;59.83
84995;BME280;75312;47.528;19.016;2024-02-14T00:39:43;99395.59;;;5.44;59.82
84995;BME280;75312;47.528;19.016;2024-02-14T00:40:14;99381.06;;;5.42;59.67
84995;BME280;75312;47.528;19.016;2024-02-14T00:40:45;99386.25;;;5.42;59.81
84995;BME280;75312;47.528;19.016;2024-02-14T00:41:17;99388.63;;;5.45;60.39
84995;BME280;75312;47.528;19.016;2024-02-14T00:41:48;99394.78;;;5.44;60.38
84995;BME280;75312;47.528;19.016;2024-02-14T00:42:19;99391.41;;;5.54;59.99
84995;BME280;75312;47.528;19.016;2024-02-14T00:42:50;99400.78;;;5.57;59.69
84995;BME280;75312;47.528;19.016;2024-02-14T00:43:23;99381.78;;;5.44;60.34
84995;BME280;75312;47.528;19.016;2024-02-14T00:43:56;99393.00;;;5.44;60.71
84995;BME280;75312;47.528;19.016;2024-02-14T00:44:29;99402.69;;;5.42;60.38
84995;BME280;75312;47.528;19.016;2024-02-14T00:44:59;99399.25;;;5.42;60.37
84995;BME280;75312;47.528;19.016;2024-02-14T00:45:30;99406.28;;;5.52;59.97
84995;BME280;75312;47.528;19.016;2024-02-14T00:46:03;99394.34;;;5.50;60.09
84995;BME280;75312;47.528;19.016;2024-02-14T00:46:33;99407.22;;;5.51;60.69
84995;BME280;75312;47.528;19.016;2024-02-14T00:47:07;99393.94;;;5.56;60.16
84995;BME280;75312;47.528;19.016;2024-02-14T00:47:37;99395.47;;;5.58;60.20
84995;BME280;75312;47.528;19.016;2024-02-14T00:48:11;99397.56;;;5.53;60.54
84995;BME280;75312;47.528;19.016;2024-02-14T00:48:43;99398.53;;;5.40;60.89
84995;BME280;75312;47.528;19.016;2024-02-14T00:49:15;99394.88;;;5.42;61.11
84995;BME280;75312;47.528;19.016;2024-02-14T00:49:46;99396.03;;;5.38;61.49
84995;BME280;75312;47.528;19.016;2024-02-14T00:50:19;99394.28;;;5.39;60.84
84995;BME280;75312;47.528;19.016;2024-02-14T00:50:52;99408.09;;;5.39;60.97
84995;BME280;75312;47.528;19.016;2024-02-14T00:51:25;99404.75;;;5.50;60.32
84995;BME280;75312;47.528;19.016;2024-02-14T00:51:55;99395.06;;;5.52;60.46
84995;BME280;75312;47.528;19.016;2024-02-14T00:52:26;99393.63;;;5.48;60.73
84995;BME280;75312;47.528;19.016;2024-02-14T00:52:59;99399.56;;;5.37;61.10
84995;BME280;75312;47.528;19.016;2024-02-14T00:53:30;99390.22;;;5.34;61.08
84995;BME280;75312;47.528;19.016;2024-02-14T00:54:00;99393.53;;;5.36;61.66
84995;BME280;75312;47.528;19.016;2024-02-14T00:54:36;99393.34;;;5.27;61.71
84995;BME280;75312;47.528;19.016;2024-02-14T00:55:07;99398.66;;;5.25;61.62
84995;BME280;75312;47.528;19.016;2024-02-14T00:55:40;99397.72;;;5.39;61.40
84995;BME280;75312;47.528;19.016;2024-02-14T00:56:11;99395.00;;;5.41;61.32
84995;BME280;75312;47.528;19.016;2024-02-14T00:56:41;99403.00;;;5.37;61.54
84995;BME280;75312;47.528;19.016;2024-02-14T00:57:12;99399.38;;;5.27;61.74
84995;BME280;75312;47.528;19.016;2024-02-14T00:57:45;99397.06;;;5.35;61.84
84995;BME280;75312;47.528;19.016;2024-02-14T00:58:15;99408.41;;;5.34;61.99
84995;BME280;75312;47.528;19.016;2024-02-14T00:58:46;99394.69;;;5.32;61.89
84995;BME280;75312;47.528;19.016;2024-02-14T00:59:19;99402.81;;;5.28;62.01
84995;BME280;75312;47.528;19.016;2024-02-14T00:59:49;99399.06;;;5.32;61.93
84995;BME280;75312;47.528;19.016;2024-02-14T01:00:20;99393.03;;;5.31;61.62
84995;BME280;75312;47.528;19.016;2024-02-14T01:00:53;99402.19;;;5.24;61.97
84995;BME280;75312;47.528;19.016;2024-02-14T01:01:26;99402.59;;;5.31;62.09
84995;BME280;75312;47.528;19.016;2024-02-14T01:01:59;99409.56;;;5.18;62.51
84995;BME280;75312;47.528;19.016;2024-02-14T01:02:30;99403.13;;;5.23;62.19
84995;BME280;75312;47.528;19.016;2024-02-14T01:03:03;99409.56;;;5.18;62.59
84995;BME280;75312;47.528;19.016;2024-02-14T01:03:33;99406.88;;;5.19;62.29
84995;BME280;75312;47.528;19.016;2024-02-14T01:04:04;99400.84;;;5.19;62.66
84995;BME280;75312;47.528;19.016;2024-02-14T01:04:34;99407.91;;;5.17;63.03
84995;BME280;75312;47.528;19.016;2024-02-14T01:05:08;99400.13;;;5.17;62.58
84995;BME280;75312;47.528;19.016;2024-02-14T01:05:39;99397.53;;;5.17;62.96
84995;BME280;75312;47.528;19.016;2024-02-14T01:06:10;99403.03;;;5.25;62.45
84995;BME280;75312;47.528;19.016;2024-02-14T01:06:44;99406.88;;;5.32;62.09
84995;BME280;75312;47.528;19.016;2024-02-14T01:07:16;99408.53;;;5.20;62.44
84995;BME280;75312;47.528;19.016;2024-02-14T01:07:51;99412.16;;;5.18;62.32
84995;BME280;75312;47.528;19.016;2024-02-14T01:08:24;99405.94;;;5.20;62.68
84995;BME280;75312;47.528;19.016;2024-02-14T01:09:00;99409.88;;;5.26;62.27
84995;BME280;75312;47.528;19.016;2024-02-14T01:09:30;99402.50;;;5.20;62.49
84995;BME280;75312;47.528;19.016;2024-02-14T01:10:04;99410.00;;;5.24;62.08
84995;BME280;75312;47.528;19.016;2024-02-14T01:10:34;99405.44;;;5.15;62.67
84995;BME280;75312;47.528;19.016;2024-02-14T01:11:05;99399.06;;;5.19;62.20
84995;BME280;75312;47.528;19.016;2024-02-14T01:11:36;99409.28;;;5.22;62.35
84995;BME280;75312;47.528;19.016;2024-02-14T01:12:08;99419.13;;;5.30;61.71
84995;BME280;75312;47.528;19.016;2024-02-14T01:12:39;99403.63;;;5.28;61.69
84995;BME280;75312;47.528;19.016;2024-02-14T01:13:15;99405.09;;;5.20;61.82
84995;BME280;75312;47.528;19.016;2024-02-14T01:13:47;99405.41;;;5.28;61.88
84995;BME280;75312;47.528;19.016;2024-02-14T01:14:18;99411.03;;;5.22;61.97
84995;BME280;75312;47.528;19.016;2024-02-14T01:14:49;99405.00;;;5.21;61.83
84995;BME280;75312;47.528;19.016;2024-02-14T01:15:19;99405.63;;;5.25;61.94
84995;BME280;75312;47.528;19.016;2024-02-14T01:15:52;99409.28;;;5.22;61.67
84995;BME280;75312;47.528;19.016;2024-02-14T01:16:27;99405.28;;;5.29;61.83
84995;BME280;75312;47.528;19.016;2024-02-14T01:16:58;99420.69;;;5.20;61.90
84995;BME280;75312;47.528;19.016;2024-02-14T01:17:31;99410.00;;;5.24;61.72
84995;BME280;75312;47.528;19.016;2024-02-14T01:18:06;99411.53;;;5.27;61.43
84995;BME280;75312;47.528;19.016;2024-02-14T01:18:37;99414.25;;;5.25;61.74
84995;BME280;75312;47.528;19.016;2024-02-14T01:19:11;99403.75;;;5.27;61.90
84995;BME280;75312;47.528;19.016;2024-02-14T01:19:44;99418.38;;;5.28;61.34
84995;BME280;75312;47.528;19.016;2024-02-14T01:20:16;99402.84;;;5.15;61.49
84995;BME280;75312;47.528;19.016;2024-02-14T01:20:51;99398.38;;;5.04;62.30
84995;BME280;75312;47.528;19.016;2024-02-14T01:21:21;99408.81;;;5.28;61.79
84995;BME280;75312;47.528;19.016;2024-02-14T01:21:52;99404.56;;;5.27;61.67
84995;BME280;75312;47.528;19.016;2024-02-14T01:22:25;99406.03;;;5.19;61.63
84995;BME280;75312;47.528;19.016;2024-02-14T01:22:57;99402.41;;;5.08;62.27
84995;BME280;75312;47.528;19.016;2024-02-14T01:23:28;99400.34;;;5.14;61.96
84995;BME280;75312;47.528;19.016;2024-02-14T01:23:59;99405.84;;;5.22;61.62
84995;BME280;75312;47.528;19.016;2024-02-14T01:24:34;99416.94;;;5.24;61.27
84995;BME280;75312;47.528;19.016;2024-02-14T01:25:05;99403.31;;;5.33;60.67
84995;BME280;75312;47.528;19.016;2024-02-14T01:25:36;99403.56;;;5.30;61.06
84995;BME280;75312;47.528;19.016;2024-02-14T01:26:07;99406.75;;;5.33;60.19
84995;BME280;75312;47.528;19.016;2024-02-14T01:26:37;99409.75;;;5.27;60.43
84995;BME280;75312;47.528;19.016;2024-02-14T01:27:11;99406.34;;;5.27;60.72
84995;BME280;75312;47.528;19.016;2024-02-14T01:27:44;99405.94;;;5.33;60.42
84995;BME280;75312;47.528;19.016;2024-02-14T01:28:18;99401.03;;;5.41;60.20
84995;BME280;75312;47.528;19.016;2024-02-14T01:28:48;99406.41;;;5.38;60.56
84995;BME280;75312;47.528;19.016;2024-02-14T01:29:25;99398.63;;;5.38;60.37
84995;BME280;75312;47.528;19.016;2024-02-14T01:29:55;99416.81;;;5.38;59.82
84995;BME280;75312;47.528;19.016;2024-02-14T01:30:28;99404.69;;;5.39;59.00
84995;BME280;75312;47.528;19.016;2024-02-14T01:31:01;99398.84;;;5.35;59.23
84995;BME280;75312;47.528;19.016;2024-02-14T01:31:33;99403.63;;;5.41;59.39
84995;BME280;75312;47.528;19.016;2024-02-14T01:32:05;99402.38;;;5.34;59.54
84995;BME280;75312;47.528;19.016;2024-02-14T01:32:40;99408.09;;;5.39;59.48
84995;BME280;75312;47.528;19.016;2024-02-14T01:33:10;99409.22;;;5.48;59.07
84995;BME280;75312;47.528;19.016;2024-02-14T01:33:44;99404.56;;;5.40;59.47
84995;BME280;75312;47.528;19.016;2024-02-14T01:34:16;99404.03;;;5.35;59.79
84995;BME280;75312;47.528;19.016;2024-02-14T01:34:46;99405.63;;;5.25;59.37
84995;BME280;75312;47.528;19.016;2024-02-14T01:35:22;99413.50;;;5.36;59.45
84995;BME280;75312;47.528;19.016;2024-02-14T01:35:53;99415.47;;;5.32;59.20
84995;BME280;75312;47.528;19.016;2024-02-14T01:36:23;99413.81;;;5.31;59.27
84995;BME280;75312;47.528;19.016;2024-02-14T01:36:54;99395.31;;;5.36;58.59
84995;BME280;75312;47.528;19.016;2024-02-14T01:37:29;99408.22;;;5.25;59.84
84995;BME280;75312;47.528;19.016;2024-02-14T01:38:00;99411.41;;;5.41;59.08
84995;BME280;75312;47.528;19.016;2024-02-14T01:38:33;99412.75;;;5.47;59.26
84995;BME280;75312;47.528;19.016;2024-02-14T01:39:05;99403.94;;;5.36;59.67
84995;BME280;75312;47.528;19.016;2024-02-14T01:39:41;99408.53;;;5.33;59.66
84995;BME280;75312;47.528;19.016;2024-02-14T01:40:14;99406.75;;;5.21;60.49
84995;BME280;75312;47.528;19.016;2024-02-14T01:40:45;99416.63;;;5.28;60.51
84995;BME280;75312;47.528;19.016;2024-02-14T01:41:17;99404.06;;;5.22;60.08
84995;BME280;75312;47.528;19.016;2024-02-14T01:41:48;99412.81;;;5.21;60.22
84995;BME280;75312;47.528;19.016;2024-02-14T01:42:21;99410.59;;;5.28;60.32
84995;BME280;75312;47.528;19.016;2024-02-14T01:42:51;99407.63;;;5.21;60.77
84995;BME280;75312;47.528;19.016;2024-02-14T01:43:25;99411.13;;;5.20;60.56
84995;BME280;75312;47.528;19.016;2024-02-14T01:44:01;99409.75;;;5.27;60.07
84995;BME280;75312;47.528;19.016;2024-02-14T01:44:36;99410.94;;;5.23;60.07
84995;BME280;75312;47.528;19.016;2024-02-14T01:45:07;99410.28;;;5.20;60.60
84995;BME280;75312;47.528;19.016;2024-02-14T01:45:40;99402.19;;;5.24;60.38
84995;BME280;75312;47.528;19.016;2024-02-14T01:46:14;99408.44;;;5.22;60.37
84995;BME280;75312;47.528;19.016;2024-02-14T01:46:48;99422.25;;;5.09;60.83
84995;BME280;75312;47.528;19.016;2024-02-14T01:47:19;99413.53;;;5.11;60.42
84995;BME280;75312;47.528;19.016;2024-02-14T01:47:51;99416.94;;;5.11;60.42
84995;BME280;75312;47.528;19.016;2024-02-14T01:48:25;99419.53;;;5.11;60.26
84995;BME280;75312;47.528;19.016;2024-02-14T01:48:56;99416.31;;;5.20;59.40
84995;BME280;75312;47.528;19.016;2024-02-14T01:49:27;99410.94;;;5.23;59.79
84995;BME280;75312;47.528;19.016;2024-02-14T01:49:59;99415.59;;;5.31;59.43
84995;BME280;75312;47.528;19.016;2024-02-14T01:50:30;99411.41;;;5.28;59.61
84995;BME280;75312;47.528;19.016;2024-02-14T01:51:04;99414.78;;;5.30;59.64
84995;BME280;75312;47.528;19.016;2024-02-14T01:51:38;99415.25;;;5.35;59.32
84995;BME280;75312;47.528;19.016;2024-02-14T01:52:15;99404.88;;;5.35;58.96
84995;BME280;75312;47.528;19.016;2024-02-14T01:52:48;99407.16;;;5.27;59.06
84995;BME280;75312;47.528;19.016;2024-02-14T01:53:22;99408.00;;;5.28;59.15
84995;BME280;75312;47.528;19.016;2024-02-14T01:53:54;99410.41;;;5.18;59.70
84995;BME280;75312;47.528;19.016;2024-02-14T01:54:27;99407.38;;;5.24;59.11
84995;BME280;75312;47.528;19.016;2024-02-14T01:55:02;99403.75;;;5.27;59.11
84995;BME280;75312;47.528;19.016;2024-02-14T01:55:37;99407.38;;;5.24;59.48
84995;BME280;75312;47.528;19.016;2024-02-14T01:56:08;99415.28;;;5.23;59.21
84995;BME280;75312;47.528;19.016;2024-02-14T01:56:39;99410.22;;;5.21;58.86
84995;BME280;75312;47.528;19.016;2024-02-14T01:57:14;99411.34;;;5.30;59.04
84995;BME280;75312;47.528;19.016;2024-02-14T01:57:45;99409.25;;;5.35;58.46
84995;BME280;75312;47.528;19.016;2024-02-14T01:58:18;99415.06;;;5.26;58.86
84995;BME280;75312;47.528;19.016;2024-02-14T01:58:49;99416.84;;;5.25;58.41
84995;BME280;75312;47.528;19.016;2024-02-14T01:59:23;99416.13;;;5.23;58.59
84995;BME280;75312;47.528;19.016;2024-02-14T01:59:58;99414.44;;;5.35;58.68
84995;BME280;75312;47.528;19.016;2024-02-14T02:00:32;99413.00;;;5.31;58.63
84995;BME280;75312;47.528;19.016;2024-02-14T02:01:04;99416.19;;;5.34;58.81
84995;BME280;75312;47.528;19.016;2024-02-14T02:01:35;99420.88;;;5.29;59.09
84995;BME280;75312;47.528;19.016;2024-02-14T02:02:06;99411.22;;;5.31;58.58
84995;BME280;75312;47.528;19.016;2024-02-14T02:02:42;99418.00;;;5.21;59.02
84995;BME280;75312;47.528;19.016;2024-02-14T02:03:14;99414.47;;;5.22;59.28
84995;BME280;75312;47.528;19.016;2024-02-14T02:03:44;99421.19;;;5.25;59.08
84995;BME280;75312;47.528;19.016;2024-02-14T02:04:15;99417.38;;;5.18;59.45
84995;BME280;75312;47.528;19.016;2024-02-14T02:04:48;99418.91;;;5.20;59.22
84995;BME280;75312;47.528;19.016;2024-02-14T02:05:21;99415.47;;;5.20;59.32
84995;BME280;75312;47.528;19.016;2024-02-14T02:05:54;99412.06;;;5.19;59.43
84995;BME280;75312;47.528;19.016;2024-02-14T02:06:30;99423.59;;;5.15;59.63
84995;BME280;75312;47.528;19.016;2024-02-14T02:07:04;99428.59;;;5.05;59.98
84995;BME280;75312;47.528;19.016;2024-02-14T02:07:35;99420.47;;;5.10;59.81
84995;BME280;75312;47.528;19.016;2024-02-14T02:08:09;99423.38;;;5.18;59.49
84995;BME280;75312;47.528;19.016;2024-02-14T02:08:45;99421.84;;;5.16;59.45
84995;BME280;75312;47.528;19.016;2024-02-14T02:09:16;99416.00;;;5.25;59.03
84995;BME280;75312;47.528;19.016;2024-02-14T02:09:50;99426.50;;;5.23;59.40
84995;BME280;75312;47.528;19.016;2024-02-14T02:10:20;99422.34;;;5.21;59.51
84995;BME280;75312;47.528;19.016;2024-02-14T02:10:52;99418.19;;;5.18;59.23
84995;BME280;75312;47.528;19.016;2024-02-14T02:11:25;99425.69;;;5.23;59.15
84995;BME280;75312;47.528;19.016;2024-02-14T02:11:55;99422.75;;;5.27;58.92
84995;BME280;75312;47.528;19.016;2024-02-14T02:12:33;99420.78;;;5.18;59.10
84995;BME280;75312;47.528;19.016;2024-02-14T02:13:04;99431.59;;;5.12;59.23
84995;BME280;75312;47.528;19.016;2024-02-14T02:13:34;99431.69;;;5.11;59.27
84995;BME280;75312;47.528;19.016;2024-02-14T02:14:05;99420.28;;;5.13;59.27
84995;BME280;75312;47.528;19.016;2024-02-14T02:14:39;99417.13;;;5.21;58.81
84995;BME280;75312;47.528;19.016;2024-02-14T02:15:10;99416.75;;;5.14;59.15
84995;BME280;75312;47.528;19.016;2024-02-14T02:15:43;99423.38;;;5.18;58.76
84995;BME280;75312;47.528;19.016;2024-02-14T02:16:15;99419.03;;;5.19;58.76
84995;BME280;75312;47.528;19.016;2024-02-14T02:16:46;99430.25;;;5.19;58.16
84995;BME280;75312;47.528;19.016;2024-02-14T02:17:19;99421.00;;;5.15;58.42
84995;BME280;75312;47.528;19.016;2024-02-14T02:17:49;99422.25;;;5.09;58.46
84995;BME280;75312;47.528;19.016;2024-02-14T02:18:24;99426.19;;;5.15;57.99
84995;BME280;75312;47.528;19.016;2024-02-14T02:18:58;99424.22;;;5.19;57.32
84995;BME280;75312;47.528;19.016;2024-02-14T02:19:29;99429.41;;;5.19;57.37
84995;BME280;75312;47.528;19.016;2024-02-14T02:20:03;99431.19;;;5.31;57.04
84995;BME280;75312;47.528;19.016;2024-02-14T02:20:36;99429.25;;;5.46;56.05
84995;BME280;75312;47.528;19.016;2024-02-14T02:21:09;99428.78;;;5.41;55.58
84995;BME280;75312;47.528;19.016;2024-02-14T02:21:43;99420.56;;;5.34;56.06
84995;BME280;75312;47.528;19.016;2024-02-14T02:22:22;99422.53;;;5.43;55.50
84995;BME280;75312;47.528;19.016;2024-02-14T02:22:52;99420.16;;;5.40;55.62
84995;BME280;75312;47.528;19.016;2024-02-14T02:23:23;99416.09;;;5.49;55.16
84995;BME280;75312;47.528;19.016;2024-02-14T02:23:58;99411.28;;;5.55;54.76
84995;BME280;75312;47.528;19.016;2024-02-14T02:24:33;99416.56;;;5.54;53.93
84995;BME280;75312;47.528;19.016;2024-02-14T02:25:04;99415.38;;;5.47;54.26
84995;BME280;75312;47.528;19.016;2024-02-14T02:25:37;99419.81;;;5.57;53.65
84995;BME280;75312;47.528;19.016;2024-02-14T02:26:10;99416.16;;;5.60;54.20
84995;BME280;75312;47.528;19.016;2024-02-14T02:26:41;99421.88;;;5.65;53.81
84995;BME280;75312;47.528;19.016;2024-02-14T02:27:16;99414.25;;;5.75;53.02
84995;BME280;75312;47.528;19.016;2024-02-14T02:27:47;99422.16;;;5.73;53.58
84995;BME280;75312;47.528;19.016;2024-02-14T02:28:18;99412.19;;;5.67;52.51
84995;BME280;75312;47.528;19.016;2024-02-14T02:28:53;99412.06;;;5.69;52.52
84995;BME280;75312;47.528;19.016;2024-02-14T02:29:29;99414.38;;;5.60;52.70
84995;BME280;75312;47.528;19.016;2024-02-14T02:29:59;99418.84;;;5.58;52.73
84995;BME280;75312;47.528;19.016;2024-02-14T02:30:33;99415.91;;;5.63;52.43
84995;BME280;75312;47.528;19.016;2024-02-14T02:31:05;99418.91;;;5.82;51.69
84995;BME280;75312;47.528;19.016;2024-02-14T02:31:39;99414.41;;;5.84;51.05
84995;BME280;75312;47.528;19.016;2024-02-14T02:32:12;99413.16;;;5.90;50.52
84995;BME280;75312;47.528;19.016;2024-02-14T02:32:46;99420.63;;;5.95;50.16
84995;BME280;75312;47.528;19.016;2024-02-14T02:33:17;99416.78;;;6.00;50.09
84995;BME280;75312;47.528;19.016;2024-02-14T02:33:54;99419.50;;;5.99;50.34
84995;BME280;75312;47.528;19.016;2024-02-14T02:34:24;99418.44;;;5.88;50.64
84995;BME280;75312;47.528;19.016;2024-02-14T02:34:56;99422.31;;;5.83;50.69
84995;BME280;75312;47.528;19.016;2024-02-14T02:35:28;99416.25;;;5.95;50.55
84995;BME280;75312;47.528;19.016;2024-02-14T02:35:59;99422.09;;;5.86;50.70
84995;BME280;75312;47.528;19.016;2024-02-14T02:36:30;99419.72;;;5.83;50.62
84995;BME280;75312;47.528;19.016;2024-02-14T02:37:00;99419.31;;;5.76;51.14
84995;BME280;75312;47.528;19.016;2024-02-14T02:37:36;99426.91;;;5.79;51.72
84995;BME280;75312;47.528;19.016;2024-02-14T02:38:07;99420.88;;;5.79;51.09
84995;BME280;75312;47.528;19.016;2024-02-14T02:38:38;99421.63;;;5.81;51.38
84995;BME280;75312;47.528;19.016;2024-02-14T02:39:09;99417.72;;;5.86;52.05
84995;BME280;75312;47.528;19.016;2024-02-14T02:39:39;99424.63;;;5.75;51.80
84995;BME280;75312;47.528;19.016;2024-02-14T02:40:13;99423.38;;;5.80;51.97
84995;BME280;75312;47.528;19.016;2024-02-14T02:40:44;99419.22;;;5.78;52.08
84995;BME280;75312;47.528;19.016;2024-02-14T02:41:15;99425.97;;;5.80;51.88
84995;BME280;75312;47.528;19.016;2024-02-14T02:41:49;99424.53;;;5.76;52.30
84995;BME280;75312;47.528;19.016;2024-02-14T02:42:20;99426.19;;;5.77;52.23
84995;BME280;75312;47.528;19.016;2024-02-14T02:42:50;99426.66;;;5.95;51.79
84995;BME280;75312;47.528;19.016;2024-02-14T02:43:21;99414.84;;;5.78;52.07
84995;BME280;75312;47.528;19.016;2024-02-14T02:43:52;99428.19;;;5.74;52.80
84995;BME280;75312;47.528;19.016;2024-02-14T02:44:25;99442.72;;;5.76;52.04
84995;BME280;75312;47.528;19.016;2024-02-14T02:44:56;99431.50;;;5.76;52.95
84995;BME280;75312;47.528;19.016;2024-02-14T02:45:27;99435.44;;;5.81;52.48
84995;BME280;75312;47.528;19.016;2024-02-14T02:46:01;99435.31;;;5.83;52.50
84995;BME280;75312;47.528;19.016;2024-02-14T02:46:34;99430.66;;;5.75;53.11
84995;BME280;75312;47.528;19.016;2024-02-14T02:47:08;99437.94;;;5.70;52.89
84995;BME280;75312;47.528;19.016;2024-02-14T02:47:41;99435.22;;;5.72;53.36
84995;BME280;75312;47.528;19.016;2024-02-14T02:48:11;99433.81;;;5.68;53.51
84995;BME280;75312;47.528;19.016;2024-02-14T02:48:42;99431.75;;;5.60;53.26
84995;BME280;75312;47.528;19.016;2024-02-14T02:49:17;99428.63;;;5.55;53.61
84995;BME280;75312;47.528;19.016;2024-02-14T02:49:50;99432.16;;;5.67;53.49
84995;BME280;75312;47.528;19.016;2024-02-14T02:50:22;99429.84;;;5.62;53.35
84995;BME280;75312;47.528;19.016;2024-02-14T02:50:53;99437.84;;;5.72;52.96
84995;BME280;75312;47.528;19.016;2024-02-14T02:51:27;99436.97;;;5.84;53.10
84995;BME280;75312;47.528;19.016;2024-02-14T02:51:58;99429.19;;;5.84;53.12